createdAt,value
2018-04-10T00:00:38.622Z,16.60
2018-04-10T00:03:21.674Z,15.70
2018-04-10T00:05:51.124Z,16.30
2018-04-10T00:08:19.933Z,16.07
2018-04-10T00:10:49.705Z,16.97
2018-04-10T00:13:20.218Z,14.63
2018-04-10T00:15:49.701Z,17.43
2018-04-10T00:18:22.204Z,17.20
2018-04-10T00:20:51.707Z,17.23
2018-04-10T00:23:22.161Z,15.70
2018-04-10T00:25:51.616Z,17.60
2018-04-10T00:28:25.261Z,17.63
2018-04-10T00:30:54.757Z,16.50
2018-04-10T00:33:24.626Z,16.90
2018-04-10T00:35:54.110Z,16.67
2018-04-10T00:38:23.560Z,17.30
2018-04-10T00:40:53.025Z,18.83
2018-04-10T00:43:23.461Z,17.40
2018-04-10T00:45:52.929Z,17.20
2018-04-10T00:48:24.752Z,16.73
2018-04-10T00:50:54.225Z,16.60
2018-04-10T00:53:39.830Z,18.03
2018-04-10T00:56:09.280Z,18.17
2018-04-10T00:58:50.213Z,19.47
2018-04-10T01:01:19.658Z,18.80
2018-04-10T01:03:50.160Z,19.60
2018-04-10T01:06:19.365Z,19.70
2018-04-10T01:08:48.854Z,18.90
2018-04-10T01:11:18.309Z,21.27
2018-04-10T01:13:48.212Z,22.03
2018-04-10T01:16:17.681Z,21.87
2018-04-10T01:18:47.130Z,23.97
2018-04-10T01:21:16.385Z,24.20
2018-04-10T01:24:04.161Z,24.80
2018-04-10T01:26:33.635Z,23.60
2018-04-10T01:29:03.101Z,23.10
2018-04-10T01:31:32.549Z,25.20
2018-04-10T01:34:05.856Z,28.70
2018-04-10T01:36:35.313Z,27.03
2018-04-10T01:39:08.494Z,28.60
2018-04-10T01:41:37.986Z,29.03
2018-04-10T01:44:07.863Z,30.70
2018-04-10T01:46:37.093Z,30.00
2018-04-10T01:49:06.596Z,31.30
2018-04-10T01:51:36.067Z,31.10
2018-04-10T01:54:06.540Z,30.10
2018-04-10T01:56:36.020Z,32.13
2018-04-10T01:59:05.896Z,31.00
2018-04-10T02:01:35.365Z,30.70
2018-04-10T02:04:05.250Z,29.37
2018-04-10T02:06:34.708Z,31.53
2018-04-10T02:09:03.696Z,29.87
2018-04-10T02:11:33.259Z,28.63
2018-04-10T02:14:09.928Z,29.40
2018-04-10T02:16:39.548Z,30.17
2018-04-10T02:19:11.384Z,28.33
2018-04-10T02:21:40.592Z,29.40
2018-04-10T02:24:14.408Z,32.00
2018-04-10T02:26:43.898Z,31.30
2018-04-10T02:29:19.359Z,32.60
2018-04-10T02:31:48.850Z,30.87
2018-04-10T02:34:18.296Z,30.67
2018-04-10T02:36:47.772Z,30.77
2018-04-10T02:39:22.926Z,29.20
2018-04-10T02:41:52.133Z,30.00
2018-04-10T02:44:21.619Z,32.00
2018-04-10T02:46:51.081Z,33.30
2018-04-10T02:49:20.586Z,31.17
2018-04-10T02:51:50.040Z,30.17
2018-04-10T02:54:19.945Z,30.47
2018-04-10T02:56:49.428Z,31.10
2018-04-10T02:59:19.984Z,31.63
2018-04-10T03:01:49.440Z,30.40
2018-04-10T03:04:18.903Z,30.23
2018-04-10T03:06:48.378Z,31.07
2018-04-10T03:09:19.844Z,29.97
2018-04-10T03:11:49.444Z,31.30
2018-04-10T03:14:19.880Z,30.77
2018-04-10T03:16:49.073Z,30.87
2018-04-10T03:19:26.052Z,30.23
2018-04-10T03:21:55.897Z,29.90
2018-04-10T03:24:26.350Z,30.00
2018-04-10T03:26:55.804Z,31.80
2018-04-10T03:29:25.072Z,32.20
2018-04-10T03:31:54.589Z,32.30
2018-04-10T03:34:24.227Z,30.27
2018-04-10T03:36:53.686Z,31.40
2018-04-10T03:39:22.912Z,30.43
2018-04-10T03:41:52.360Z,30.47
2018-04-10T03:44:31.156Z,31.43
2018-04-10T03:47:00.650Z,30.40
2018-04-10T03:49:33.669Z,30.87
2018-04-10T03:52:03.166Z,31.10
2018-04-10T03:54:32.605Z,31.00
2018-04-10T03:57:03.025Z,28.27
2018-04-10T03:59:32.509Z,31.50
2018-04-10T04:02:09.622Z,30.20
2018-04-10T04:04:39.094Z,29.13
2018-04-10T04:07:09.528Z,32.20
2018-04-10T04:09:39.014Z,31.33
2018-04-10T04:12:16.076Z,30.23
2018-04-10T04:14:45.960Z,30.40
2018-04-10T04:17:28.553Z,30.57
2018-04-10T04:20:14.222Z,30.47
2018-04-10T04:22:43.417Z,30.50
2018-04-10T04:25:20.940Z,29.63
2018-04-10T04:27:50.814Z,31.30
2018-04-10T04:30:20.284Z,29.80
2018-04-10T04:32:50.170Z,30.10
2018-04-10T04:35:19.640Z,29.17
2018-04-10T04:37:49.686Z,30.43
2018-04-10T04:40:19.176Z,31.37
2018-04-10T04:42:55.525Z,30.40
2018-04-10T04:45:24.765Z,32.07
2018-04-10T04:47:54.239Z,31.37
2018-04-10T04:50:23.716Z,31.67
2018-04-10T04:52:56.900Z,31.00
2018-04-10T04:55:26.348Z,32.93
2018-04-10T04:57:59.712Z,33.27
2018-04-10T05:00:29.165Z,32.97
2018-04-10T05:02:58.644Z,32.70
2018-04-10T05:05:28.125Z,31.37
2018-04-10T05:07:58.005Z,31.60
2018-04-10T05:10:37.488Z,29.07
2018-04-10T05:13:07.368Z,27.80
2018-04-10T05:15:40.058Z,34.73
2018-04-10T05:18:09.572Z,32.60
2018-04-10T05:20:51.138Z,30.73
2018-04-10T05:23:20.617Z,30.80
2018-04-10T05:25:52.087Z,32.50
2018-04-10T05:28:21.561Z,34.50
2018-04-10T05:31:01.213Z,33.60
2018-04-10T05:33:31.080Z,33.07
2018-04-10T05:36:04.257Z,33.73
2018-04-10T05:38:33.717Z,32.30
2018-04-10T05:41:04.163Z,34.17
2018-04-10T05:43:33.625Z,31.07
2018-04-10T05:46:06.638Z,30.70
2018-04-10T05:48:36.128Z,33.57
2018-04-10T05:51:05.281Z,34.37
2018-04-10T05:53:34.748Z,32.37
2018-04-10T05:56:26.425Z,29.80
2018-04-10T05:58:55.903Z,30.37
2018-04-10T06:01:30.639Z,30.37
2018-04-10T06:04:00.139Z,32.60
2018-04-10T06:06:33.147Z,30.10
2018-04-10T06:09:02.612Z,31.73
2018-04-10T06:11:32.560Z,32.00
2018-04-10T06:14:01.761Z,28.40
2018-04-10T06:16:31.621Z,31.80
2018-04-10T06:19:01.096Z,30.73
2018-04-10T06:24:30.902Z,28.67
2018-04-10T06:27:00.463Z,30.60
2018-04-10T06:29:40.130Z,30.00
2018-04-10T06:32:10.276Z,30.60
2018-04-10T06:34:40.865Z,28.73
2018-04-10T06:37:10.317Z,29.50
2018-04-10T06:39:41.105Z,29.13
2018-04-10T06:42:10.284Z,27.60
2018-04-10T06:44:43.239Z,27.67
2018-04-10T06:47:12.741Z,29.60
2018-04-10T06:49:43.682Z,27.93
2018-04-10T06:52:13.551Z,28.83
2018-04-10T06:54:43.011Z,32.87
2018-04-10T06:57:12.898Z,34.03
2018-04-10T06:59:45.792Z,31.07
2018-04-10T07:02:15.110Z,29.73
2018-04-10T07:04:44.557Z,29.47
2018-04-10T07:07:14.041Z,29.50
2018-04-10T07:09:43.553Z,27.53
2018-04-10T07:12:13.013Z,28.23
2018-04-10T07:14:44.145Z,30.33
2018-04-10T07:17:13.607Z,31.13
2018-04-10T07:19:43.110Z,27.17
2018-04-10T07:22:12.585Z,27.10
2018-04-10T07:24:46.531Z,26.27
2018-04-10T07:27:16.633Z,23.17
2018-04-10T07:29:55.929Z,18.37
2018-04-10T07:32:25.431Z,23.63
2018-04-10T07:35:03.407Z,23.07
2018-04-10T07:37:33.309Z,20.03
2018-04-10T07:40:02.816Z,22.30
2018-04-10T07:42:33.077Z,18.83
2018-04-10T07:45:15.442Z,19.77
2018-04-10T07:47:44.927Z,15.27
2018-04-10T07:50:14.813Z,19.53
2018-04-10T07:52:44.272Z,16.80
2018-04-10T07:55:13.933Z,15.00
2018-04-10T07:57:43.413Z,15.53
2018-04-10T08:00:13.300Z,15.60
2018-04-10T08:02:42.763Z,14.47
2018-04-10T08:05:13.620Z,13.50
2018-04-10T08:07:43.480Z,14.37
2018-04-10T08:10:20.752Z,12.20
2018-04-10T08:12:50.632Z,12.60
2018-04-10T08:15:21.104Z,12.57
2018-04-10T08:17:50.565Z,13.43
2018-04-10T08:20:23.074Z,13.20
2018-04-10T08:22:52.586Z,13.57
2018-04-10T08:25:22.043Z,13.83
2018-04-10T08:27:51.718Z,14.10
2018-04-10T08:30:21.187Z,13.90
2018-04-10T08:32:50.697Z,14.20
2018-04-10T08:35:23.291Z,13.57
2018-04-10T08:37:56.593Z,13.40
2018-04-10T08:40:26.272Z,12.17
2018-04-10T08:42:56.189Z,11.33
2018-04-10T08:45:25.447Z,10.80
2018-04-10T08:47:54.885Z,10.17
2018-04-10T08:50:24.616Z,10.13
2018-04-10T08:52:54.065Z,10.63
2018-04-10T08:55:25.513Z,10.73
2018-04-10T08:57:54.969Z,11.00
2018-04-10T09:00:24.598Z,10.47
2018-04-10T09:02:54.515Z,9.23
2018-04-10T09:05:24.362Z,7.80
2018-04-10T09:07:53.833Z,4.70
2018-04-10T09:10:26.425Z,6.27
2018-04-10T09:12:55.878Z,5.90
2018-04-10T09:15:25.743Z,5.80
2018-04-10T09:17:55.227Z,4.93
2018-04-10T09:20:24.682Z,5.67
2018-04-10T09:22:54.140Z,5.13
2018-04-10T09:25:23.810Z,4.30
2018-04-10T09:27:54.240Z,4.03
2018-04-10T09:30:24.080Z,4.10
2018-04-10T09:32:54.149Z,3.93
2018-04-10T09:35:23.367Z,3.37
2018-04-10T09:37:52.830Z,3.00
2018-04-10T09:40:22.303Z,2.70
2018-04-10T09:42:51.780Z,3.67
2018-04-10T09:45:21.612Z,2.70
2018-04-10T09:47:51.528Z,3.47
2018-04-10T09:50:20.980Z,2.73
2018-04-10T09:52:50.432Z,3.43
2018-04-10T09:55:19.881Z,3.43
2018-04-10T09:57:50.604Z,3.23
2018-04-10T10:00:25.408Z,2.77
2018-04-10T10:02:55.898Z,3.53
2018-04-10T10:05:25.652Z,3.57
2018-04-10T10:07:55.177Z,3.80
2018-04-10T10:10:27.636Z,3.57
2018-04-10T10:12:57.188Z,3.00
2018-04-10T10:15:26.975Z,3.70
2018-04-10T10:17:56.552Z,3.80
2018-04-10T10:20:26.390Z,4.10
2018-04-10T10:22:55.964Z,3.73
2018-04-10T10:25:28.944Z,3.70
2018-04-10T10:27:58.409Z,3.13
2018-04-10T10:30:27.970Z,4.03
2018-04-10T10:32:57.434Z,3.83
2018-04-10T10:35:27.056Z,2.63
2018-04-10T10:37:56.532Z,3.33
2018-04-10T10:40:25.986Z,3.67
2018-04-10T10:42:55.457Z,3.73
2018-04-10T10:45:29.173Z,4.03
2018-04-10T10:47:59.030Z,3.77
2018-04-10T10:50:30.401Z,3.83
2018-04-10T10:52:59.853Z,6.87
2018-04-10T10:55:29.328Z,4.43
2018-04-10T10:57:58.760Z,3.83
2018-04-10T11:00:28.243Z,4.40
2018-04-10T11:02:57.688Z,3.90
2018-04-10T11:05:27.146Z,3.70
2018-04-10T11:07:56.606Z,4.27
2018-04-10T11:10:26.151Z,4.20
2018-04-10T11:13:00.021Z,3.47
2018-04-10T11:15:29.257Z,4.20
2018-04-10T11:18:03.043Z,4.20
2018-04-10T11:23:12.220Z,4.07
2018-04-10T11:25:43.045Z,4.03
2018-04-10T11:28:13.360Z,4.07
2018-04-10T11:30:43.316Z,3.70
2018-04-10T11:33:14.119Z,2.93
2018-04-10T11:35:44.566Z,3.70
2018-04-10T11:38:19.995Z,3.53
2018-04-10T11:40:50.270Z,3.23
2018-04-10T11:43:19.596Z,3.63
2018-04-10T11:45:52.927Z,3.10
2018-04-10T11:48:22.579Z,3.00
2018-04-10T11:50:52.285Z,3.60
2018-04-10T11:53:22.430Z,3.20
2018-04-10T11:55:52.249Z,3.23
2018-04-10T11:58:22.846Z,2.83
2018-04-10T12:00:53.215Z,3.20
2018-04-10T12:03:23.113Z,3.47
2018-04-10T12:05:52.720Z,3.07
2018-04-10T12:08:22.675Z,2.67
2018-04-10T12:10:52.411Z,2.60
2018-04-10T12:13:22.069Z,2.43
2018-04-10T12:15:51.715Z,2.80
2018-04-10T12:18:23.492Z,2.57
2018-04-10T12:20:53.091Z,2.70
2018-04-10T12:23:22.830Z,3.10
2018-04-10T12:25:52.356Z,2.37
2018-04-10T12:28:22.032Z,1.93
2018-04-10T12:30:51.725Z,2.60
2018-04-10T12:33:21.286Z,2.30
2018-04-10T12:35:50.878Z,2.60
2018-04-10T12:38:20.199Z,2.33
2018-04-10T12:40:50.061Z,1.90
2018-04-10T12:43:19.670Z,2.40
2018-04-10T12:45:49.364Z,2.10
2018-04-10T12:48:18.756Z,2.30
2018-04-10T12:50:48.536Z,2.00
2018-04-10T12:53:17.920Z,2.37
2018-04-10T12:55:47.538Z,2.50
2018-04-10T12:58:17.066Z,2.43
2018-04-10T13:00:46.625Z,2.50
2018-04-10T13:03:16.440Z,2.20
2018-04-10T13:05:46.100Z,2.63
2018-04-10T13:08:15.750Z,2.70
2018-04-10T13:10:46.336Z,2.67
2018-04-10T13:13:15.891Z,2.00
2018-04-10T13:15:45.184Z,2.80
2018-04-10T13:18:14.608Z,2.40
2018-04-10T13:20:44.237Z,2.60
2018-04-10T13:23:27.628Z,2.30
2018-04-10T13:26:01.131Z,2.40
2018-04-10T13:28:33.011Z,2.10
2018-04-10T13:31:02.751Z,2.03
2018-04-10T13:33:33.944Z,2.10
2018-04-10T13:36:06.431Z,2.17
2018-04-10T13:38:40.479Z,1.90
2018-04-10T13:41:09.947Z,2.10
2018-04-10T13:46:16.874Z,2.33
2018-04-10T13:48:53.253Z,1.97
2018-04-10T13:51:26.624Z,2.40
2018-04-10T13:54:01.123Z,2.00
2018-04-10T13:56:37.531Z,1.57
2018-04-10T13:59:07.854Z,2.30
2018-04-10T14:01:40.335Z,2.57
2018-04-10T14:04:11.994Z,2.33
2018-04-10T14:06:50.724Z,1.87
2018-04-10T14:14:51.734Z,2.50
2018-04-10T14:17:23.928Z,2.37
2018-04-10T14:19:57.997Z,3.00
2018-04-10T14:31:57.527Z,1.93
2018-04-10T14:34:27.160Z,2.03
2018-04-10T14:37:00.935Z,3.00
2018-04-10T14:42:14.732Z,2.20
2018-04-10T14:44:50.892Z,2.40
2018-04-10T14:47:20.775Z,2.10
2018-04-10T14:49:59.992Z,1.80
2018-04-10T14:52:30.021Z,2.30
2018-04-10T14:55:01.201Z,1.90
2018-04-10T14:57:30.470Z,2.07
2018-04-10T14:59:59.759Z,2.23
2018-04-10T15:02:29.048Z,2.20
2018-04-10T15:05:00.453Z,2.03
2018-04-10T15:07:29.937Z,1.90
2018-04-10T15:10:00.116Z,1.90
2018-04-10T15:12:29.301Z,2.10
2018-04-10T15:15:06.339Z,2.10
2018-04-10T15:17:36.221Z,2.10
2018-04-10T15:20:06.665Z,2.50
2018-04-10T15:22:35.911Z,2.30
2018-04-10T15:25:10.551Z,3.73
2018-04-10T15:27:39.799Z,2.60
2018-04-10T15:30:15.218Z,3.10
2018-04-10T15:32:46.619Z,2.20
2018-04-10T15:35:16.290Z,2.23
2018-04-10T15:37:46.847Z,2.40
2018-04-10T15:40:16.452Z,2.13
2018-04-10T15:42:46.877Z,2.30
2018-04-10T15:45:16.351Z,3.60
2018-04-10T15:48:08.129Z,2.50
2018-04-10T15:53:22.639Z,1.80
2018-04-10T15:55:53.593Z,2.90
2018-04-10T15:58:34.291Z,2.40
2018-04-10T16:04:19.183Z,4.20
2018-04-10T16:07:04.923Z,4.07
2018-04-10T16:09:35.540Z,4.20
2018-04-10T16:12:05.429Z,3.50
2018-04-10T16:14:36.709Z,3.77
2018-04-10T16:17:12.474Z,3.50
2018-04-10T16:19:45.385Z,3.23
2018-04-10T16:22:17.260Z,3.50
2018-04-10T16:24:53.197Z,4.47
2018-04-10T16:27:23.833Z,4.40
2018-04-10T16:29:54.425Z,2.97
2018-04-10T16:32:24.048Z,4.17
2018-04-10T16:34:53.842Z,3.10
2018-04-10T16:37:23.586Z,3.40
2018-04-10T16:39:53.272Z,3.93
2018-04-10T16:42:24.993Z,3.33
2018-04-10T16:44:58.418Z,3.80
2018-04-10T16:47:28.171Z,3.40
2018-04-10T16:50:05.266Z,3.57
2018-04-10T16:52:35.892Z,3.90
2018-04-10T16:55:07.753Z,3.33
2018-04-10T16:57:37.534Z,3.83
2018-04-10T17:00:07.108Z,3.60
2018-04-10T17:02:37.505Z,2.80
2018-04-10T17:05:10.360Z,2.83
2018-04-10T17:07:43.892Z,3.33
2018-04-10T17:10:17.012Z,3.63
2018-04-10T17:12:49.743Z,3.80
2018-04-10T17:15:24.330Z,13.27
2018-04-10T17:17:55.261Z,5.00
2018-04-10T17:20:36.091Z,6.70
2018-04-10T17:23:52.736Z,7.57
2018-04-10T17:28:58.714Z,6.30
2018-04-10T17:31:28.297Z,5.50
2018-04-10T17:33:59.009Z,6.33
2018-04-10T17:36:34.637Z,5.93
2018-04-10T17:39:03.768Z,6.00
2018-04-10T17:41:33.761Z,3.60
2018-04-10T17:44:04.115Z,7.27
2018-04-10T17:46:39.214Z,4.23
2018-04-10T17:49:10.328Z,3.60
2018-04-10T17:51:40.733Z,4.03
2018-04-10T17:54:16.336Z,3.40
2018-04-10T17:56:46.424Z,4.03
2018-04-10T17:59:16.041Z,6.53
2018-04-10T18:01:47.558Z,6.50
2018-04-10T18:04:18.586Z,6.83
2018-04-10T18:06:49.034Z,7.73
2018-04-10T18:09:22.555Z,8.70
2018-04-10T18:11:53.420Z,9.17
2018-04-10T18:19:46.941Z,8.37
2018-04-10T18:22:16.799Z,10.80
2018-04-10T18:24:46.663Z,10.33
2018-04-10T18:27:16.518Z,10.07
2018-04-10T18:32:23.304Z,11.30
2018-04-10T18:34:53.656Z,9.57
2018-04-10T18:37:23.394Z,10.87
2018-04-10T18:39:53.827Z,13.27
2018-04-10T18:45:04.069Z,15.30
2018-04-10T18:50:52.856Z,17.27
2018-04-10T18:53:24.427Z,20.23
2018-04-10T19:00:08.529Z,15.00
2018-04-10T19:02:40.218Z,8.90
2018-04-10T19:05:10.957Z,9.40
2018-04-10T19:10:18.285Z,13.70
2018-04-10T19:12:48.157Z,18.57
2018-04-10T19:15:31.992Z,18.80
2018-04-10T19:18:02.665Z,20.13
2018-04-10T19:20:33.864Z,22.73
2018-04-10T19:23:04.776Z,24.00
2018-04-10T19:25:49.326Z,26.40
2018-04-10T19:28:19.478Z,29.10
2018-04-10T19:30:49.508Z,30.97
2018-04-10T19:33:37.043Z,34.50
2018-04-10T19:36:07.381Z,38.37
2018-04-10T19:38:41.275Z,32.50
2018-04-10T19:41:11.057Z,31.50
2018-04-10T19:43:41.599Z,32.07
2018-04-10T19:46:11.081Z,30.73
2018-04-10T19:48:45.714Z,29.57
2018-04-10T19:51:16.232Z,26.23
2018-04-10T19:53:46.212Z,26.70
2018-04-10T19:56:16.010Z,19.60
2018-04-10T19:58:46.555Z,19.17
2018-04-10T20:01:16.636Z,19.57
2018-04-10T20:03:56.228Z,17.00
2018-04-10T20:06:28.088Z,18.97
2018-04-10T20:11:41.846Z,24.17
2018-04-10T20:14:18.364Z,19.10
2018-04-10T20:16:52.164Z,23.80
2018-04-10T20:19:22.040Z,23.70
2018-04-10T20:21:53.804Z,20.97
2018-04-10T20:24:24.428Z,17.30
2018-04-10T20:26:54.086Z,22.57
2018-04-10T20:29:25.329Z,19.77
2018-04-10T20:32:00.633Z,19.80
2018-04-10T20:34:31.408Z,20.10
2018-04-10T20:37:00.850Z,22.67
2018-04-10T20:39:30.528Z,23.90
2018-04-10T20:42:01.337Z,24.43
2018-04-10T20:44:30.984Z,28.70
2018-04-10T20:47:01.260Z,28.67
2018-04-10T20:54:58.383Z,21.90
2018-04-10T20:57:28.076Z,19.97
2018-04-10T20:59:58.533Z,25.43
2018-04-10T21:02:29.642Z,29.73
2018-04-10T21:05:00.862Z,28.90
2018-04-10T21:07:33.065Z,31.63
2018-04-10T21:10:02.599Z,30.90
2018-04-10T21:12:35.144Z,33.67
2018-04-10T21:15:04.137Z,33.17
2018-04-10T21:20:45.845Z,31.43
2018-04-10T21:29:25.163Z,34.80
2018-04-10T21:31:55.039Z,32.90
2018-04-10T21:34:24.530Z,31.83
2018-04-10T21:36:53.795Z,36.97
2018-04-10T21:39:23.305Z,37.40
2018-04-10T21:41:52.489Z,41.03
2018-04-10T21:44:22.108Z,34.97
2018-04-10T21:46:51.815Z,30.63
2018-04-10T21:49:21.506Z,26.03
2018-04-10T21:51:51.166Z,28.37
2018-04-10T21:54:20.710Z,29.47
2018-04-10T21:56:50.028Z,25.83
2018-04-10T21:59:20.480Z,21.13
2018-04-10T22:01:50.012Z,17.80
2018-04-10T22:04:19.261Z,16.20
2018-04-10T22:06:48.820Z,12.70
2018-04-10T22:09:18.863Z,12.13
2018-04-10T22:11:48.437Z,12.40
2018-04-10T22:14:17.952Z,9.93
2018-04-10T22:16:48.159Z,10.63
2018-04-10T22:19:17.738Z,8.90
2018-04-10T22:21:47.727Z,10.13
2018-04-10T22:24:17.372Z,7.90
2018-04-10T22:26:47.051Z,7.07
2018-04-10T22:29:16.596Z,7.77
2018-04-10T22:31:46.142Z,6.20
2018-04-10T22:34:15.710Z,6.77
2018-04-10T22:36:45.248Z,6.07
2018-04-10T22:39:14.575Z,6.37
2018-04-10T22:41:44.321Z,4.97
2018-04-10T22:44:13.855Z,4.67
2018-04-10T22:46:43.422Z,4.50
2018-04-10T22:49:12.679Z,5.20
2018-04-10T22:51:42.424Z,5.60
2018-04-10T22:54:11.836Z,4.87
2018-04-10T22:56:41.199Z,4.83
2018-04-10T22:59:10.956Z,5.73
2018-04-10T23:01:40.458Z,5.17
2018-04-10T23:04:09.977Z,6.03
2018-04-10T23:06:39.280Z,6.27
2018-04-10T23:09:08.820Z,5.73
2018-04-10T23:11:38.229Z,6.43
2018-04-10T23:14:07.827Z,8.10
2018-04-10T23:16:37.361Z,7.87
2018-04-10T23:19:07.392Z,7.30
2018-04-10T23:21:37.397Z,8.00
2018-04-10T23:24:07.049Z,9.80
2018-04-10T23:26:36.440Z,7.83
2018-04-10T23:29:06.101Z,7.70
2018-04-10T23:31:35.589Z,7.63
2018-04-10T23:34:04.894Z,8.20
2018-04-10T23:36:34.269Z,7.90
2018-04-10T23:39:03.658Z,7.50
2018-04-10T23:41:32.708Z,7.67
2018-04-10T23:44:02.104Z,9.27
2018-04-10T23:46:31.644Z,8.93
2018-04-10T23:49:01.169Z,9.37
2018-04-10T23:51:31.154Z,9.33
2018-04-10T23:54:00.769Z,9.43
2018-04-10T23:56:30.309Z,8.97
2018-04-10T23:58:59.861Z,8.67
